Terminal Aerodrome Forecast
Issued by NWS

Home | Current Version | Previous Version | Text Only | Print | Product List | Glossary On
Versions: 1 2 3 4 5 6 7 8 9 10 11 12 13 14 15 16 17 18 19 20 21 22 23
000
FTUS41 KCAR 280358 AAB
TAFHUL
TAF AMD
KHUL 280358Z 2804/2824 19006KT P6SM OVC007
     FM280600 20005KT 4SM BR OVC003
     FM281300 31008KT P6SM SCT005 OVC015
     FM281500 34008G15KT P6SM BKN035=

USA.gov is the U.S. government's official web portal to all federal, state and local government web resources and services.